sensor_id;sensor_type;location;lat;lon;timestamp;P1;durP1;ratioP1;P2;durP2;ratioP2
32705;SDS011;19094;50.972;3.538;2023-05-10T00:01:04;22.45;;;9.98;;
32705;SDS011;19094;50.972;3.538;2023-05-10T00:03:30;25.50;;;12.25;;
32705;SDS011;19094;50.972;3.538;2023-05-10T00:05:58;20.38;;;11.02;;
32705;SDS011;19094;50.972;3.538;2023-05-10T00:08:23;23.33;;;11.90;;
32705;SDS011;19094;50.972;3.538;2023-05-10T00:10:49;22.30;;;11.48;;
32705;SDS011;19094;50.972;3.538;2023-05-10T00:13:15;24.13;;;12.77;;
32705;SDS011;19094;50.972;3.538;2023-05-10T00:15:40;24.00;;;11.57;;
32705;SDS011;19094;50.972;3.538;2023-05-10T00:18:06;24.13;;;12.27;;
32705;SDS011;19094;50.972;3.538;2023-05-10T00:20:32;27.58;;;12.73;;
32705;SDS011;19094;50.972;3.538;2023-05-10T00:22:58;27.35;;;13.18;;
32705;SDS011;19094;50.972;3.538;2023-05-10T00:25:24;26.52;;;12.90;;
32705;SDS011;19094;50.972;3.538;2023-05-10T00:27:49;25.45;;;11.90;;
32705;SDS011;19094;50.972;3.538;2023-05-10T00:30:15;25.88;;;11.68;;
32705;SDS011;19094;50.972;3.538;2023-05-10T00:32:41;24.83;;;11.15;;
32705;SDS011;19094;50.972;3.538;2023-05-10T00:35:07;22.73;;;11.63;;
32705;SDS011;19094;50.972;3.538;2023-05-10T00:37:33;28.00;;;13.25;;
32705;SDS011;19094;50.972;3.538;2023-05-10T00:39:59;27.77;;;12.63;;
32705;SDS011;19094;50.972;3.538;2023-05-10T00:42:24;27.33;;;12.25;;
32705;SDS011;19094;50.972;3.538;2023-05-10T00:44:50;28.67;;;11.70;;
32705;SDS011;19094;50.972;3.538;2023-05-10T00:47:16;29.20;;;11.73;;
32705;SDS011;19094;50.972;3.538;2023-05-10T00:49:42;30.15;;;13.38;;
32705;SDS011;19094;50.972;3.538;2023-05-10T00:52:08;24.42;;;12.55;;
32705;SDS011;19094;50.972;3.538;2023-05-10T00:54:34;25.13;;;12.43;;
32705;SDS011;19094;50.972;3.538;2023-05-10T00:57:00;26.83;;;12.98;;
32705;SDS011;19094;50.972;3.538;2023-05-10T00:59:26;27.42;;;13.40;;
32705;SDS011;19094;50.972;3.538;2023-05-10T01:01:52;26.95;;;12.80;;
32705;SDS011;19094;50.972;3.538;2023-05-10T01:04:18;25.27;;;13.32;;
32705;SDS011;19094;50.972;3.538;2023-05-10T01:06:46;27.08;;;14.13;;
32705;SDS011;19094;50.972;3.538;2023-05-10T01:09:12;33.22;;;13.27;;
32705;SDS011;19094;50.972;3.538;2023-05-10T01:11:38;31.48;;;14.77;;
32705;SDS011;19094;50.972;3.538;2023-05-10T01:14:04;27.20;;;14.40;;
32705;SDS011;19094;50.972;3.538;2023-05-10T01:16:36;29.88;;;14.50;;
32705;SDS011;19094;50.972;3.538;2023-05-10T01:19:10;33.40;;;15.10;;
32705;SDS011;19094;50.972;3.538;2023-05-10T01:30:02;38.03;;;17.85;;
32705;SDS011;19094;50.972;3.538;2023-05-10T01:35:43;38.55;;;17.65;;
32705;SDS011;19094;50.972;3.538;2023-05-10T01:38:30;34.20;;;16.45;;
32705;SDS011;19094;50.972;3.538;2023-05-10T01:46:29;33.33;;;16.67;;
32705;SDS011;19094;50.972;3.538;2023-05-10T01:49:05;34.42;;;16.05;;
32705;SDS011;19094;50.972;3.538;2023-05-10T01:51:41;35.70;;;16.38;;
32705;SDS011;19094;50.972;3.538;2023-05-10T01:54:11;31.63;;;15.85;;
32705;SDS011;19094;50.972;3.538;2023-05-10T01:56:38;31.52;;;15.07;;
32705;SDS011;19094;50.972;3.538;2023-05-10T01:59:07;37.17;;;15.68;;
32705;SDS011;19094;50.972;3.538;2023-05-10T02:01:39;35.85;;;16.08;;
32705;SDS011;19094;50.972;3.538;2023-05-10T02:04:06;33.28;;;15.25;;
32705;SDS011;19094;50.972;3.538;2023-05-10T02:06:32;33.97;;;15.48;;
32705;SDS011;19094;50.972;3.538;2023-05-10T02:09:00;32.72;;;15.13;;
32705;SDS011;19094;50.972;3.538;2023-05-10T02:11:27;30.95;;;15.15;;
32705;SDS011;19094;50.972;3.538;2023-05-10T02:13:54;34.70;;;16.70;;
32705;SDS011;19094;50.972;3.538;2023-05-10T02:16:22;29.90;;;14.95;;
32705;SDS011;19094;50.972;3.538;2023-05-10T02:18:50;29.92;;;14.90;;
32705;SDS011;19094;50.972;3.538;2023-05-10T02:21:17;35.53;;;15.52;;
32705;SDS011;19094;50.972;3.538;2023-05-10T02:23:45;35.88;;;16.33;;
32705;SDS011;19094;50.972;3.538;2023-05-10T02:26:11;29.65;;;15.30;;
32705;SDS011;19094;50.972;3.538;2023-05-10T02:28:38;31.00;;;15.27;;
32705;SDS011;19094;50.972;3.538;2023-05-10T02:31:07;31.35;;;14.75;;
32705;SDS011;19094;50.972;3.538;2023-05-10T02:33:35;36.67;;;15.85;;
32705;SDS011;19094;50.972;3.538;2023-05-10T02:36:05;30.25;;;14.30;;
32705;SDS011;19094;50.972;3.538;2023-05-10T02:38:32;31.25;;;15.25;;
32705;SDS011;19094;50.972;3.538;2023-05-10T02:40:59;29.65;;;14.90;;
32705;SDS011;19094;50.972;3.538;2023-05-10T02:43:26;35.47;;;16.58;;
32705;SDS011;19094;50.972;3.538;2023-05-10T02:45:54;32.63;;;17.08;;
32705;SDS011;19094;50.972;3.538;2023-05-10T02:48:20;33.58;;;16.02;;
32705;SDS011;19094;50.972;3.538;2023-05-10T02:50:46;37.55;;;16.90;;
32705;SDS011;19094;50.972;3.538;2023-05-10T02:53:18;32.63;;;17.67;;
32705;SDS011;19094;50.972;3.538;2023-05-10T02:55:49;34.85;;;17.02;;
32705;SDS011;19094;50.972;3.538;2023-05-10T02:58:16;35.17;;;16.17;;
32705;SDS011;19094;50.972;3.538;2023-05-10T03:00:44;37.33;;;17.23;;
32705;SDS011;19094;50.972;3.538;2023-05-10T03:03:10;40.53;;;18.13;;
32705;SDS011;19094;50.972;3.538;2023-05-10T03:05:36;39.42;;;18.00;;
32705;SDS011;19094;50.972;3.538;2023-05-10T03:08:01;42.30;;;19.73;;
32705;SDS011;19094;50.972;3.538;2023-05-10T03:10:29;36.15;;;16.60;;
32705;SDS011;19094;50.972;3.538;2023-05-10T03:18:28;37.67;;;17.63;;
32705;SDS011;19094;50.972;3.538;2023-05-10T03:21:02;35.53;;;17.33;;
32705;SDS011;19094;50.972;3.538;2023-05-10T03:23:35;38.05;;;18.38;;
32705;SDS011;19094;50.972;3.538;2023-05-10T03:26:05;38.75;;;17.55;;
32705;SDS011;19094;50.972;3.538;2023-05-10T03:28:33;31.42;;;16.05;;
32705;SDS011;19094;50.972;3.538;2023-05-10T03:31:00;36.83;;;16.55;;
32705;SDS011;19094;50.972;3.538;2023-05-10T03:33:27;34.00;;;16.55;;
32705;SDS011;19094;50.972;3.538;2023-05-10T03:35:53;31.83;;;15.68;;
32705;SDS011;19094;50.972;3.538;2023-05-10T03:38:19;37.72;;;16.80;;
32705;SDS011;19094;50.972;3.538;2023-05-10T03:40:45;35.85;;;15.75;;
32705;SDS011;19094;50.972;3.538;2023-05-10T03:43:10;43.83;;;18.30;;
32705;SDS011;19094;50.972;3.538;2023-05-10T03:45:36;35.20;;;15.80;;
32705;SDS011;19094;50.972;3.538;2023-05-10T03:48:02;36.03;;;16.25;;
32705;SDS011;19094;50.972;3.538;2023-05-10T03:50:27;36.30;;;16.17;;
32705;SDS011;19094;50.972;3.538;2023-05-10T03:52:53;35.92;;;16.55;;
32705;SDS011;19094;50.972;3.538;2023-05-10T03:55:19;46.05;;;18.00;;
32705;SDS011;19094;50.972;3.538;2023-05-10T03:57:45;36.30;;;17.13;;
32705;SDS011;19094;50.972;3.538;2023-05-10T04:00:10;39.08;;;16.52;;
32705;SDS011;19094;50.972;3.538;2023-05-10T04:02:36;36.83;;;16.42;;
32705;SDS011;19094;50.972;3.538;2023-05-10T04:05:02;31.35;;;16.25;;
32705;SDS011;19094;50.972;3.538;2023-05-10T04:07:28;36.30;;;16.77;;
32705;SDS011;19094;50.972;3.538;2023-05-10T04:09:54;43.72;;;17.52;;
32705;SDS011;19094;50.972;3.538;2023-05-10T04:12:19;35.38;;;16.33;;
32705;SDS011;19094;50.972;3.538;2023-05-10T04:14:45;40.03;;;17.73;;
32705;SDS011;19094;50.972;3.538;2023-05-10T04:17:11;40.38;;;17.50;;
32705;SDS011;19094;50.972;3.538;2023-05-10T04:19:36;48.60;;;18.30;;
32705;SDS011;19094;50.972;3.538;2023-05-10T04:22:02;43.53;;;19.02;;
32705;SDS011;19094;50.972;3.538;2023-05-10T04:24:28;43.10;;;18.65;;
32705;SDS011;19094;50.972;3.538;2023-05-10T04:26:54;44.75;;;19.58;;
32705;SDS011;19094;50.972;3.538;2023-05-10T04:29:20;50.45;;;20.55;;
32705;SDS011;19094;50.972;3.538;2023-05-10T04:31:46;49.08;;;20.65;;
32705;SDS011;19094;50.972;3.538;2023-05-10T04:34:11;44.10;;;19.20;;
32705;SDS011;19094;50.972;3.538;2023-05-10T04:36:37;45.53;;;21.05;;
32705;SDS011;19094;50.972;3.538;2023-05-10T04:39:03;51.78;;;21.65;;
32705;SDS011;19094;50.972;3.538;2023-05-10T04:41:29;50.13;;;19.88;;
32705;SDS011;19094;50.972;3.538;2023-05-10T04:43:54;49.85;;;20.35;;
32705;SDS011;19094;50.972;3.538;2023-05-10T04:46:20;50.38;;;21.08;;
32705;SDS011;19094;50.972;3.538;2023-05-10T04:48:46;43.35;;;20.17;;
32705;SDS011;19094;50.972;3.538;2023-05-10T04:51:12;47.05;;;19.60;;
32705;SDS011;19094;50.972;3.538;2023-05-10T04:53:38;44.17;;;20.63;;
32705;SDS011;19094;50.972;3.538;2023-05-10T04:56:03;48.42;;;19.67;;
32705;SDS011;19094;50.972;3.538;2023-05-10T04:58:30;46.33;;;19.85;;
32705;SDS011;19094;50.972;3.538;2023-05-10T05:00:55;49.10;;;20.58;;
32705;SDS011;19094;50.972;3.538;2023-05-10T05:03:21;53.20;;;21.08;;
32705;SDS011;19094;50.972;3.538;2023-05-10T05:05:47;43.95;;;19.40;;
32705;SDS011;19094;50.972;3.538;2023-05-10T05:08:13;41.75;;;19.65;;
32705;SDS011;19094;50.972;3.538;2023-05-10T05:10:39;46.72;;;19.92;;
32705;SDS011;19094;50.972;3.538;2023-05-10T05:13:04;51.15;;;21.52;;
32705;SDS011;19094;50.972;3.538;2023-05-10T05:15:30;46.60;;;22.08;;
32705;SDS011;19094;50.972;3.538;2023-05-10T05:17:56;51.20;;;20.75;;
32705;SDS011;19094;50.972;3.538;2023-05-10T05:20:22;48.53;;;20.52;;
32705;SDS011;19094;50.972;3.538;2023-05-10T05:22:47;48.35;;;21.52;;
32705;SDS011;19094;50.972;3.538;2023-05-10T05:25:13;52.08;;;22.00;;
32705;SDS011;19094;50.972;3.538;2023-05-10T05:27:40;52.30;;;23.23;;
32705;SDS011;19094;50.972;3.538;2023-05-10T05:30:06;58.80;;;22.75;;
32705;SDS011;19094;50.972;3.538;2023-05-10T05:32:32;53.60;;;23.17;;
32705;SDS011;19094;50.972;3.538;2023-05-10T05:34:57;60.13;;;23.42;;
32705;SDS011;19094;50.972;3.538;2023-05-10T05:37:23;57.80;;;23.63;;
32705;SDS011;19094;50.972;3.538;2023-05-10T05:39:49;56.75;;;23.90;;
32705;SDS011;19094;50.972;3.538;2023-05-10T05:42:15;68.53;;;23.15;;
32705;SDS011;19094;50.972;3.538;2023-05-10T05:44:42;59.78;;;24.55;;
32705;SDS011;19094;50.972;3.538;2023-05-10T05:47:08;56.78;;;24.05;;
32705;SDS011;19094;50.972;3.538;2023-05-10T05:49:34;63.08;;;23.77;;
32705;SDS011;19094;50.972;3.538;2023-05-10T05:52:03;57.58;;;24.35;;
32705;SDS011;19094;50.972;3.538;2023-05-10T05:54:29;69.15;;;26.95;;
32705;SDS011;19094;50.972;3.538;2023-05-10T05:56:56;53.97;;;23.98;;
32705;SDS011;19094;50.972;3.538;2023-05-10T05:59:25;62.67;;;25.90;;
32705;SDS011;19094;50.972;3.538;2023-05-10T06:01:51;71.82;;;25.15;;
32705;SDS011;19094;50.972;3.538;2023-05-10T06:04:17;69.63;;;25.45;;
32705;SDS011;19094;50.972;3.538;2023-05-10T06:06:43;63.70;;;24.15;;
32705;SDS011;19094;50.972;3.538;2023-05-10T06:09:09;61.85;;;25.70;;
32705;SDS011;19094;50.972;3.538;2023-05-10T06:11:35;58.80;;;23.58;;
32705;SDS011;19094;50.972;3.538;2023-05-10T06:14:02;65.00;;;24.90;;
32705;SDS011;19094;50.972;3.538;2023-05-10T06:16:29;67.25;;;24.95;;
32705;SDS011;19094;50.972;3.538;2023-05-10T06:18:55;57.60;;;24.60;;
32705;SDS011;19094;50.972;3.538;2023-05-10T06:21:21;61.38;;;24.45;;
32705;SDS011;19094;50.972;3.538;2023-05-10T06:23:47;55.83;;;24.95;;
32705;SDS011;19094;50.972;3.538;2023-05-10T06:26:13;53.30;;;23.23;;
32705;SDS011;19094;50.972;3.538;2023-05-10T06:28:38;55.38;;;22.60;;
32705;SDS011;19094;50.972;3.538;2023-05-10T06:31:05;58.92;;;24.67;;
32705;SDS011;19094;50.972;3.538;2023-05-10T06:33:31;57.65;;;22.98;;
32705;SDS011;19094;50.972;3.538;2023-05-10T06:35:57;62.60;;;25.10;;
32705;SDS011;19094;50.972;3.538;2023-05-10T06:38:23;64.68;;;24.98;;
32705;SDS011;19094;50.972;3.538;2023-05-10T06:40:48;66.30;;;22.73;;
32705;SDS011;19094;50.972;3.538;2023-05-10T06:43:14;60.25;;;22.95;;
32705;SDS011;19094;50.972;3.538;2023-05-10T06:45:40;50.60;;;22.20;;
32705;SDS011;19094;50.972;3.538;2023-05-10T06:48:06;49.17;;;22.02;;
32705;SDS011;19094;50.972;3.538;2023-05-10T06:50:32;47.17;;;21.40;;
32705;SDS011;19094;50.972;3.538;2023-05-10T06:52:58;55.70;;;21.38;;
32705;SDS011;19094;50.972;3.538;2023-05-10T06:55:24;49.03;;;20.50;;
32705;SDS011;19094;50.972;3.538;2023-05-10T06:57:51;55.17;;;24.10;;
32705;SDS011;19094;50.972;3.538;2023-05-10T07:00:17;60.28;;;24.77;;
32705;SDS011;19094;50.972;3.538;2023-05-10T07:02:43;57.75;;;24.70;;
32705;SDS011;19094;50.972;3.538;2023-05-10T07:05:09;55.60;;;23.52;;
32705;SDS011;19094;50.972;3.538;2023-05-10T07:07:39;54.63;;;23.13;;
32705;SDS011;19094;50.972;3.538;2023-05-10T07:10:04;55.90;;;23.27;;
32705;SDS011;19094;50.972;3.538;2023-05-10T07:12:31;60.63;;;24.77;;
32705;SDS011;19094;50.972;3.538;2023-05-10T07:14:56;57.78;;;23.30;;
32705;SDS011;19094;50.972;3.538;2023-05-10T07:17:22;48.72;;;20.10;;
32705;SDS011;19094;50.972;3.538;2023-05-10T07:19:48;41.28;;;18.25;;
32705;SDS011;19094;50.972;3.538;2023-05-10T07:22:14;49.13;;;18.80;;
32705;SDS011;19094;50.972;3.538;2023-05-10T07:24:41;42.13;;;18.95;;
32705;SDS011;19094;50.972;3.538;2023-05-10T07:27:07;45.03;;;19.15;;
32705;SDS011;19094;50.972;3.538;2023-05-10T07:29:33;42.50;;;18.33;;
32705;SDS011;19094;50.972;3.538;2023-05-10T07:32:00;49.08;;;20.58;;
32705;SDS011;19094;50.972;3.538;2023-05-10T07:34:26;49.65;;;20.13;;
32705;SDS011;19094;50.972;3.538;2023-05-10T07:36:52;42.85;;;18.92;;
32705;SDS011;19094;50.972;3.538;2023-05-10T07:39:17;47.45;;;19.40;;
32705;SDS011;19094;50.972;3.538;2023-05-10T07:41:43;54.25;;;20.50;;
32705;SDS011;19094;50.972;3.538;2023-05-10T07:44:09;45.45;;;19.52;;
32705;SDS011;19094;50.972;3.538;2023-05-10T07:46:34;48.63;;;20.10;;
32705;SDS011;19094;50.972;3.538;2023-05-10T07:49:00;42.17;;;17.20;;
32705;SDS011;19094;50.972;3.538;2023-05-10T07:51:26;39.58;;;17.13;;
32705;SDS011;19094;50.972;3.538;2023-05-10T07:53:52;45.63;;;18.30;;
32705;SDS011;19094;50.972;3.538;2023-05-10T07:56:25;42.95;;;17.13;;
32705;SDS011;19094;50.972;3.538;2023-05-10T07:58:54;43.38;;;17.52;;
32705;SDS011;19094;50.972;3.538;2023-05-10T08:01:21;42.47;;;17.48;;
32705;SDS011;19094;50.972;3.538;2023-05-10T08:03:47;41.22;;;17.50;;
32705;SDS011;19094;50.972;3.538;2023-05-10T08:06:14;45.30;;;16.88;;
32705;SDS011;19094;50.972;3.538;2023-05-10T08:08:40;37.17;;;17.38;;
32705;SDS011;19094;50.972;3.538;2023-05-10T08:11:07;44.28;;;17.60;;
32705;SDS011;19094;50.972;3.538;2023-05-10T08:13:32;45.63;;;17.42;;
32705;SDS011;19094;50.972;3.538;2023-05-10T08:15:58;48.05;;;17.13;;
32705;SDS011;19094;50.972;3.538;2023-05-10T08:18:24;44.70;;;18.48;;
32705;SDS011;19094;50.972;3.538;2023-05-10T08:20:50;43.85;;;17.02;;
32705;SDS011;19094;50.972;3.538;2023-05-10T08:23:15;42.10;;;17.20;;
32705;SDS011;19094;50.972;3.538;2023-05-10T08:25:41;38.33;;;16.05;;
32705;SDS011;19094;50.972;3.538;2023-05-10T08:28:07;42.50;;;16.23;;
32705;SDS011;19094;50.972;3.538;2023-05-10T08:30:32;42.67;;;17.38;;
32705;SDS011;19094;50.972;3.538;2023-05-10T08:32:58;46.00;;;18.05;;
32705;SDS011;19094;50.972;3.538;2023-05-10T08:35:24;38.35;;;17.25;;
32705;SDS011;19094;50.972;3.538;2023-05-10T08:37:50;51.72;;;18.77;;
32705;SDS011;19094;50.972;3.538;2023-05-10T08:40:16;41.05;;;17.35;;
32705;SDS011;19094;50.972;3.538;2023-05-10T08:42:49;42.28;;;17.38;;
32705;SDS011;19094;50.972;3.538;2023-05-10T08:45:21;47.13;;;16.65;;
32705;SDS011;19094;50.972;3.538;2023-05-10T08:47:48;40.75;;;16.95;;
32705;SDS011;19094;50.972;3.538;2023-05-10T08:50:16;39.78;;;17.02;;
32705;SDS011;19094;50.972;3.538;2023-05-10T08:52:44;37.42;;;15.57;;
32705;SDS011;19094;50.972;3.538;2023-05-10T08:55:12;37.53;;;16.23;;
32705;SDS011;19094;50.972;3.538;2023-05-10T08:57:38;45.25;;;17.67;;
32705;SDS011;19094;50.972;3.538;2023-05-10T09:00:04;39.75;;;15.80;;
32705;SDS011;19094;50.972;3.538;2023-05-10T09:02:31;40.53;;;16.95;;
32705;SDS011;19094;50.972;3.538;2023-05-10T09:04:57;44.92;;;16.50;;
32705;SDS011;19094;50.972;3.538;2023-05-10T09:07:22;36.33;;;16.35;;
32705;SDS011;19094;50.972;3.538;2023-05-10T09:09:48;35.78;;;16.25;;
32705;SDS011;19094;50.972;3.538;2023-05-10T09:12:14;46.08;;;17.63;;
32705;SDS011;19094;50.972;3.538;2023-05-10T09:14:41;39.28;;;17.30;;
32705;SDS011;19094;50.972;3.538;2023-05-10T09:17:08;40.33;;;17.67;;
32705;SDS011;19094;50.972;3.538;2023-05-10T09:19:35;41.17;;;16.85;;
32705;SDS011;19094;50.972;3.538;2023-05-10T09:22:01;40.90;;;17.02;;
32705;SDS011;19094;50.972;3.538;2023-05-10T09:24:29;43.75;;;15.98;;
32705;SDS011;19094;50.972;3.538;2023-05-10T09:26:56;37.65;;;15.10;;
32705;SDS011;19094;50.972;3.538;2023-05-10T09:29:23;37.60;;;16.42;;
32705;SDS011;19094;50.972;3.538;2023-05-10T09:31:51;38.55;;;16.17;;
32705;SDS011;19094;50.972;3.538;2023-05-10T09:34:30;41.78;;;16.75;;
32705;SDS011;19094;50.972;3.538;2023-05-10T09:37:00;38.85;;;15.70;;
32705;SDS011;19094;50.972;3.538;2023-05-10T09:42:05;32.42;;;15.48;;
32705;SDS011;19094;50.972;3.538;2023-05-10T09:44:34;32.40;;;14.05;;
32705;SDS011;19094;50.972;3.538;2023-05-10T09:47:00;32.38;;;14.55;;
32705;SDS011;19094;50.972;3.538;2023-05-10T09:49:27;30.40;;;13.70;;
32705;SDS011;19094;50.972;3.538;2023-05-10T09:52:00;35.47;;;14.38;;
32705;SDS011;19094;50.972;3.538;2023-05-10T09:54:27;34.50;;;14.70;;
32705;SDS011;19094;50.972;3.538;2023-05-10T09:56:53;31.77;;;15.05;;
32705;SDS011;19094;50.972;3.538;2023-05-10T09:59:19;34.50;;;15.27;;
32705;SDS011;19094;50.972;3.538;2023-05-10T10:01:50;34.50;;;14.82;;
32705;SDS011;19094;50.972;3.538;2023-05-10T10:04:16;37.40;;;15.52;;
32705;SDS011;19094;50.972;3.538;2023-05-10T10:06:42;38.95;;;15.95;;
32705;SDS011;19094;50.972;3.538;2023-05-10T10:09:08;39.10;;;15.13;;
32705;SDS011;19094;50.972;3.538;2023-05-10T10:11:38;30.00;;;15.15;;
32705;SDS011;19094;50.972;3.538;2023-05-10T10:14:04;31.70;;;15.27;;
32705;SDS011;19094;50.972;3.538;2023-05-10T10:16:30;33.08;;;15.05;;
32705;SDS011;19094;50.972;3.538;2023-05-10T10:18:57;32.47;;;15.18;;
32705;SDS011;19094;50.972;3.538;2023-05-10T10:21:23;35.47;;;15.60;;
32705;SDS011;19094;50.972;3.538;2023-05-10T10:23:49;36.83;;;16.27;;
32705;SDS011;19094;50.972;3.538;2023-05-10T10:26:16;38.75;;;16.50;;
32705;SDS011;19094;50.972;3.538;2023-05-10T10:28:56;41.88;;;17.17;;
32705;SDS011;19094;50.972;3.538;2023-05-10T10:31:46;36.85;;;17.67;;
32705;SDS011;19094;50.972;3.538;2023-05-10T10:34:26;37.58;;;17.90;;
32705;SDS011;19094;50.972;3.538;2023-05-10T10:36:54;37.63;;;17.70;;
32705;SDS011;19094;50.972;3.538;2023-05-10T10:39:21;38.85;;;19.13;;
32705;SDS011;19094;50.972;3.538;2023-05-10T10:41:51;35.95;;;17.92;;
32705;SDS011;19094;50.972;3.538;2023-05-10T10:52:59;33.80;;;16.40;;
32705;SDS011;19094;50.972;3.538;2023-05-10T10:55:19;33.70;;;16.27;;
32705;SDS011;19094;50.972;3.538;2023-05-10T10:57:50;34.95;;;16.65;;
32705;SDS011;19094;50.972;3.538;2023-05-10T11:00:29;35.75;;;16.48;;
32705;SDS011;19094;50.972;3.538;2023-05-10T11:03:06;31.70;;;15.57;;
32705;SDS011;19094;50.972;3.538;2023-05-10T11:05:37;41.13;;;15.23;;
32705;SDS011;19094;50.972;3.538;2023-05-10T11:08:07;38.65;;;18.83;;
32705;SDS011;19094;50.972;3.538;2023-05-10T11:10:40;38.25;;;17.48;;
32705;SDS011;19094;50.972;3.538;2023-05-10T11:13:14;44.63;;;17.55;;
32705;SDS011;19094;50.972;3.538;2023-05-10T11:15:43;35.35;;;16.17;;
32705;SDS011;19094;50.972;3.538;2023-05-10T11:20:43;32.15;;;16.58;;
32705;SDS011;19094;50.972;3.538;2023-05-10T11:23:15;36.33;;;16.13;;
32705;SDS011;19094;50.972;3.538;2023-05-10T11:25:42;30.40;;;15.10;;
32705;SDS011;19094;50.972;3.538;2023-05-10T11:28:09;35.00;;;16.88;;
32705;SDS011;19094;50.972;3.538;2023-05-10T11:30:37;37.55;;;16.60;;
32705;SDS011;19094;50.972;3.538;2023-05-10T11:33:05;35.78;;;15.27;;
32705;SDS011;19094;50.972;3.538;2023-05-10T11:35:36;29.52;;;15.32;;
32705;SDS011;19094;50.972;3.538;2023-05-10T11:38:09;31.20;;;16.02;;
32705;SDS011;19094;50.972;3.538;2023-05-10T11:40:36;32.85;;;16.20;;
32705;SDS011;19094;50.972;3.538;2023-05-10T11:43:02;27.88;;;13.73;;
32705;SDS011;19094;50.972;3.538;2023-05-10T11:45:29;35.53;;;14.40;;
32705;SDS011;19094;50.972;3.538;2023-05-10T11:47:58;31.48;;;15.40;;
32705;SDS011;19094;50.972;3.538;2023-05-10T11:50:25;28.42;;;14.30;;
32705;SDS011;19094;50.972;3.538;2023-05-10T11:52:53;29.55;;;15.13;;
32705;SDS011;19094;50.972;3.538;2023-05-10T11:55:20;30.98;;;15.73;;
32705;SDS011;19094;50.972;3.538;2023-05-10T11:57:46;29.95;;;14.95;;
32705;SDS011;19094;50.972;3.538;2023-05-10T12:00:16;37.60;;;16.08;;
32705;SDS011;19094;50.972;3.538;2023-05-10T12:02:41;29.35;;;15.05;;
32705;SDS011;19094;50.972;3.538;2023-05-10T12:05:08;33.95;;;15.73;;
32705;SDS011;19094;50.972;3.538;2023-05-10T12:07:34;33.15;;;15.57;;
32705;SDS011;19094;50.972;3.538;2023-05-10T12:10:04;30.90;;;15.73;;
32705;SDS011;19094;50.972;3.538;2023-05-10T12:12:38;40.25;;;16.95;;
32705;SDS011;19094;50.972;3.538;2023-05-10T12:15:06;31.98;;;15.90;;
32705;SDS011;19094;50.972;3.538;2023-05-10T12:17:48;33.83;;;17.10;;
32705;SDS011;19094;50.972;3.538;2023-05-10T12:20:15;36.17;;;16.90;;
32705;SDS011;19094;50.972;3.538;2023-05-10T12:22:46;40.40;;;16.95;;
32705;SDS011;19094;50.972;3.538;2023-05-10T12:25:14;37.25;;;17.10;;
32705;SDS011;19094;50.972;3.538;2023-05-10T12:27:40;39.03;;;16.73;;
32705;SDS011;19094;50.972;3.538;2023-05-10T12:30:06;37.20;;;16.83;;
32705;SDS011;19094;50.972;3.538;2023-05-10T12:32:41;31.05;;;15.75;;
32705;SDS011;19094;50.972;3.538;2023-05-10T12:35:08;33.67;;;15.05;;
32705;SDS011;19094;50.972;3.538;2023-05-10T12:37:34;30.27;;;15.63;;
32705;SDS011;19094;50.972;3.538;2023-05-10T12:40:07;36.30;;;18.15;;
32705;SDS011;19094;50.972;3.538;2023-05-10T12:42:34;36.45;;;17.75;;
32705;SDS011;19094;50.972;3.538;2023-05-10T12:45:01;38.20;;;17.48;;
32705;SDS011;19094;50.972;3.538;2023-05-10T12:47:27;44.75;;;17.77;;
32705;SDS011;19094;50.972;3.538;2023-05-10T12:49:53;35.63;;;18.00;;
32705;SDS011;19094;50.972;3.538;2023-05-10T12:52:19;37.60;;;17.00;;
32705;SDS011;19094;50.972;3.538;2023-05-10T12:54:45;31.35;;;11.68;;
32705;SDS011;19094;50.972;3.538;2023-05-10T12:57:11;29.55;;;11.85;;
32705;SDS011;19094;50.972;3.538;2023-05-10T12:59:37;26.85;;;11.60;;
32705;SDS011;19094;50.972;3.538;2023-05-10T13:02:03;23.92;;;10.00;;
32705;SDS011;19094;50.972;3.538;2023-05-10T13:04:29;26.10;;;10.35;;
32705;SDS011;19094;50.972;3.538;2023-05-10T13:06:54;30.02;;;11.25;;
32705;SDS011;19094;50.972;3.538;2023-05-10T13:09:26;28.60;;;10.48;;
32705;SDS011;19094;50.972;3.538;2023-05-10T13:11:54;24.52;;;10.02;;
32705;SDS011;19094;50.972;3.538;2023-05-10T13:14:20;22.40;;;9.88;;
32705;SDS011;19094;50.972;3.538;2023-05-10T13:16:46;22.02;;;8.70;;
32705;SDS011;19094;50.972;3.538;2023-05-10T13:19:15;22.75;;;8.55;;
32705;SDS011;19094;50.972;3.538;2023-05-10T13:21:41;23.85;;;8.52;;
32705;SDS011;19094;50.972;3.538;2023-05-10T13:24:07;22.10;;;6.70;;
32705;SDS011;19094;50.972;3.538;2023-05-10T13:26:33;28.00;;;7.57;;
32705;SDS011;19094;50.972;3.538;2023-05-10T13:28:59;29.45;;;6.35;;
32705;SDS011;19094;50.972;3.538;2023-05-10T13:31:25;20.63;;;5.95;;
32705;SDS011;19094;50.972;3.538;2023-05-10T13:33:50;18.92;;;5.43;;
32705;SDS011;19094;50.972;3.538;2023-05-10T13:36:16;17.17;;;4.82;;
32705;SDS011;19094;50.972;3.538;2023-05-10T13:38:43;13.27;;;4.75;;
32705;SDS011;19094;50.972;3.538;2023-05-10T13:41:08;13.15;;;5.00;;
32705;SDS011;19094;50.972;3.538;2023-05-10T13:43:35;15.13;;;4.38;;
32705;SDS011;19094;50.972;3.538;2023-05-10T13:46:01;17.30;;;5.05;;
32705;SDS011;19094;50.972;3.538;2023-05-10T13:48:26;15.63;;;4.70;;
32705;SDS011;19094;50.972;3.538;2023-05-10T13:50:52;13.52;;;5.32;;
32705;SDS011;19094;50.972;3.538;2023-05-10T13:53:18;14.10;;;4.45;;
32705;SDS011;19094;50.972;3.538;2023-05-10T13:55:43;14.98;;;4.50;;
32705;SDS011;19094;50.972;3.538;2023-05-10T13:58:09;15.40;;;5.45;;
32705;SDS011;19094;50.972;3.538;2023-05-10T14:00:35;22.88;;;5.65;;
32705;SDS011;19094;50.972;3.538;2023-05-10T14:03:01;11.90;;;4.38;;
32705;SDS011;19094;50.972;3.538;2023-05-10T14:05:27;15.25;;;4.07;;
32705;SDS011;19094;50.972;3.538;2023-05-10T14:07:52;19.98;;;4.85;;
32705;SDS011;19094;50.972;3.538;2023-05-10T14:10:18;18.02;;;4.50;;
32705;SDS011;19094;50.972;3.538;2023-05-10T14:12:44;16.88;;;4.55;;
32705;SDS011;19094;50.972;3.538;2023-05-10T14:15:10;20.25;;;5.00;;
32705;SDS011;19094;50.972;3.538;2023-05-10T14:17:36;16.42;;;5.55;;
32705;SDS011;19094;50.972;3.538;2023-05-10T14:20:02;20.65;;;5.63;;
32705;SDS011;19094;50.972;3.538;2023-05-10T14:22:28;19.30;;;4.93;;
32705;SDS011;19094;50.972;3.538;2023-05-10T14:24:54;15.75;;;4.80;;
32705;SDS011;19094;50.972;3.538;2023-05-10T14:27:20;15.40;;;4.25;;
32705;SDS011;19094;50.972;3.538;2023-05-10T14:29:46;13.55;;;4.00;;
32705;SDS011;19094;50.972;3.538;2023-05-10T14:32:12;17.55;;;4.22;;
32705;SDS011;19094;50.972;3.538;2023-05-10T14:34:38;13.45;;;4.20;;
32705;SDS011;19094;50.972;3.538;2023-05-10T14:37:03;21.27;;;4.38;;
32705;SDS011;19094;50.972;3.538;2023-05-10T14:39:29;17.48;;;4.53;;
32705;SDS011;19094;50.972;3.538;2023-05-10T14:41:55;21.27;;;4.40;;
32705;SDS011;19094;50.972;3.538;2023-05-10T14:44:21;12.27;;;3.80;;
32705;SDS011;19094;50.972;3.538;2023-05-10T14:46:47;15.80;;;4.28;;
32705;SDS011;19094;50.972;3.538;2023-05-10T14:49:13;19.80;;;4.68;;
32705;SDS011;19094;50.972;3.538;2023-05-10T14:51:39;13.57;;;3.95;;
32705;SDS011;19094;50.972;3.538;2023-05-10T14:54:04;16.70;;;3.65;;
32705;SDS011;19094;50.972;3.538;2023-05-10T14:56:31;19.27;;;4.10;;
32705;SDS011;19094;50.972;3.538;2023-05-10T14:58:56;15.50;;;4.07;;